• Join FlightAware (Why Join?)
  • Login
  • US Flag 
06:12AM EDT


 

Airport Tracker/Info


-or-


 

Live Flight TrackerFlight Track Log ✈ SKW6345 ✈ 14-Aug-2013 ✈ KBZN - KSFO

Flight Track Log - Related Links

Times and Time Zones

All times are in EDT time to prevent confusion due to time zone crossing. See the SKW6345 flight status page for this flight to view local times or setup timezone preferences in your user account.

Time Position Orientation Groundspeed Altitude Reporting Facility
EDT Latitude Longitude Course Direction KTS MPH feet Rate Location/Type
01:53PM 45.6967 -111.1883 246° West 216 249 9,200  Level Salt Lake Center
01:54PM 45.7067 -111.2839 279° West 235 270 10,500 1,140 Climbing Salt Lake Center
01:55PM 45.7428 -111.6758 288° West  Level FlightAware Approximate
01:55PM 45.7178 -111.4000 278° West 268 308 11,600  Level Salt Lake Center
01:56PM 45.7785 -111.8364 288° West  Level FlightAware Approximate
01:56PM 45.6969 -111.5172 256° West 298 343 13,500  Level Salt Lake Center
01:57PM 45.8158 -111.9964 290° West  Level FlightAware Approximate
01:57PM 45.6494 -111.6239 238° Southwest 316 364 15,100  Level Salt Lake Center
01:58PM 45.5894 -111.7567 237° Southwest 331 381 16,800 1,380 Climbing Salt Lake Center
01:59PM 45.5394 -111.8689 238° Southwest 335 386 18,000 1,140 Climbing Salt Lake Center
02:00PM 45.4881 -111.9844 238° Southwest 342 394 19,200 1,020 Climbing Salt Lake Center
02:01PM 45.4364 -112.1022 238° Southwest 349 402 20,200 1,080 Climbing Salt Lake Center
02:02PM 45.3828 -112.2208 237° Southwest 356 410 21,500 1,200 Climbing Salt Lake Center
02:03PM 45.3247 -112.3497 237° Southwest 363 418 22,700 1,020 Climbing Salt Lake Center
02:04PM 45.2622 -112.4889 237° Southwest 372 428 23,700 840 Climbing Salt Lake Center
02:05PM 45.2078 -112.6078 237° Southwest 375 432 24,500 840 Climbing Salt Lake Center
02:07PM 45.1439 -112.7503 238° Southwest 382 440 25,500 780 Climbing Salt Lake Center
02:08PM 45.0883 -112.8728 237° Southwest 386 444 26,200 720 Climbing Salt Lake Center
02:09PM 45.0222 -113.0167 237° Southwest 390 449 27,000 600 Climbing Salt Lake Center
02:10PM 44.9639 -113.1411 237° Southwest 396 456 27,500 540 Climbing Salt Lake Center
02:11PM 44.8956 -113.2886 237° Southwest 402 463 28,200 540 Climbing Salt Lake Center
02:12PM 44.8361 -113.4150 236° Southwest 403 464 28,700 540 Climbing Salt Lake Center
02:13PM 44.7672 -113.5642 237° Southwest 406 467 29,400 600 Climbing Salt Lake Center
02:14PM 44.7061 -113.6919 236° Southwest 411 473 30,000 600 Climbing Salt Lake Center
02:15PM 44.6367 -113.8400 237° Southwest 408 470 30,700 600 Climbing Salt Lake Center
02:16PM 44.5817 -113.9642 238° Southwest 406 467 31,300 540 Climbing Salt Lake Center
02:17PM 44.5094 -114.1114 236° Southwest 407 468 31,900 300 Climbing Salt Lake Center
02:18PM 44.4506 -114.2381 237° Southwest 405 466 32,000  Climbing Salt Lake Center
02:19PM 44.3767 -114.3906 236° Southwest 418 481 32,000  Level Salt Lake Center
02:20PM 44.3106 -114.5247 235° Southwest 431 496 32,000  Level Salt Lake Center
02:21PM 44.2442 -114.6603 236° Southwest 438 504 32,000  Level Salt Lake Center
02:22PM 44.1675 -114.8175 236° Southwest 439 505 32,000  Level Salt Lake Center
02:23PM 44.1017 -114.9503 235° Southwest 436 502 32,000  Level Salt Lake Center
02:24PM 44.0217 -115.1103 235° Southwest 447 514 32,000  Level Salt Lake Center
02:25PM 43.9556 -115.2433 235° Southwest 437 503 32,000  Level Salt Lake Center
02:26PM 43.8794 -115.3972 236° Southwest 433 498 32,000  Level Salt Lake Center
02:27PM 43.8128 -115.5303 235° Southwest 437 503 32,000  Level Salt Lake Center
02:28PM 43.7356 -115.6814 235° Southwest 428 493 32,000  Level Salt Lake Center
02:29PM 43.6683 -115.8161 235° Southwest 440 506 32,000  Level Salt Lake Center
02:30PM 43.6019 -115.9461 235° Southwest 433 498 32,000  Level Salt Lake Center
02:31PM 43.5250 -116.0978 235° Southwest 432 497 32,000  Level Salt Lake Center
02:32PM 43.4578 -116.2272 234° Southwest 432 497 32,000  Level Salt Lake Center
02:33PM 43.3811 -116.3778 235° Southwest 430 495 32,000  Level Salt Lake Center
02:34PM 43.3142 -116.5050 234° Southwest 428 493 32,000  Level Salt Lake Center
02:35PM 43.2386 -116.6531 235° Southwest 424 488 32,000  Level Salt Lake Center
02:36PM 43.1731 -116.7786 234° Southwest 422 486 32,000  Level Salt Lake Center
02:38PM 43.0961 -116.9239 234° Southwest 420 483 32,000  Level Salt Lake Center
02:39PM 43.0294 -117.0483 234° Southwest 423 487 32,000  Level Salt Lake Center
02:40PM 42.9531 -117.1944 234° Southwest 424 488 32,000  Level Salt Lake Center
02:41PM 42.8872 -117.3169 234° Southwest 420 483 32,000  Level Salt Lake Center
02:42PM 42.8211 -117.4408 234° Southwest 421 484 32,000  Level Salt Lake Center
02:43PM 42.7442 -117.5833 234° Southwest 416 479 32,000  Level Salt Lake Center
02:44PM 42.6786 -117.7067 234° Southwest 418 481 32,000  Level Salt Lake Center
02:45PM 42.5983 -117.8458 232° Southwest 418 481 32,000  Level Salt Lake Center
02:46PM 42.5031 -117.9258 212° Southwest 425 489 32,000  Level Salt Lake Center
02:47PM 42.3817 -117.9978 204° Southwest 426 490 32,000  Level Salt Lake Center
02:48PM 42.2778 -118.0611 204° Southwest 429 494 32,000  Level Salt Lake Center
02:49PM 42.1606 -118.1311 204° Southwest 421 484 32,000  Level Salt Lake Center
02:50PM 42.0572 -118.1936 204° Southwest 424 488 32,000  Level Salt Lake Center
02:51PM 41.9358 -118.2678 204° Southwest 429 494 32,000  Level Salt Lake Center
02:52PM 41.8319 -118.3303 204° Southwest 427 491 32,000  Level Salt Lake Center
02:53PM 41.7111 -118.4011 204° Southwest 426 490 32,000  Level Salt Lake Center
02:54PM 41.6078 -118.4631 204° Southwest 425 489 32,000  Level Salt Lake Center
02:55PM 41.4875 -118.5336 204° Southwest 424 488 32,000  Level Salt Lake Center
02:56PM 41.3828 -118.5953 204° Southwest 427 491 32,000  Level Salt Lake Center
02:57PM 41.2622 -118.6661 204° Southwest 425 489 32,000  Level Salt Lake Center
02:58PM 41.1583 -118.7275 204° Southwest 426 490 32,000  Level Salt Lake Center
02:59PM 41.0375 -118.7989 204° Southwest 427 491 32,000  Level Salt Lake Center
03:00PM 40.9339 -118.8592 204° Southwest 426 490 32,000  Level Salt Lake Center
03:01PM 40.8128 -118.9294 204° Southwest 426 490 32,000  Level Salt Lake Center
03:02PM 40.7072 -118.9889 203° Southwest 430 495 32,000  Level Salt Lake Center
03:03PM 40.5842 -119.0600 204° Southwest 430 495 32,000  Level Salt Lake Center
03:04PM 40.4722 -119.1233 203° Southwest 427 491 32,000  Level Salt Lake Center
03:05PM 40.3619 -119.1864 204° Southwest 430 495 32,000  Level Salt Lake Center
03:06PM 40.2531 -119.2497 204° Southwest 431 496 32,000  Level Salt Lake Center
03:08PM 40.1428 -119.3128 204° Southwest 432 497 32,000  Level Salt Lake Center
03:09PM 40.0331 -119.3739 203° Southwest 431 496 32,000  Level Salt Lake Center
03:10PM 39.9225 -119.4358 203° Southwest 432 497 32,000  Level Salt Lake Center
03:11PM 39.7933 -119.5186 206° Southwest 433 498 32,000  Level Salt Lake Center
03:12PM 39.7039 -119.6581 230° Southwest 421 484 32,000  Level Oakland Center
03:13PM 39.6694 -119.8047 253° West 426 490 32,000  Level Oakland Center
03:14PM 39.6375 -119.9511 254° West 423 487 32,000  Level Oakland Center
03:15PM 39.6028 -120.0981 253° West 429 494 32,000  Level Oakland Center
03:16PM 39.5639 -120.2489 252° West 420 483 32,000  Level Oakland Center
03:17PM 39.5253 -120.3933 251° West 424 488 32,000  Level Oakland Center
03:18PM 39.4881 -120.5383 252° West 426 490 32,000  Level Oakland Center
03:19PM 39.4583 -120.6847 255° West 421 484 32,000  Level Oakland Center
03:20PM 39.4461 -120.8358 264° West 420 483 32,000  Level Oakland Center
03:21PM 39.4283 -121.0153 263° West 422 486 32,000  Level Oakland Center
03:22PM 39.4144 -121.1656 263° West 422 486 32,000  Level Oakland Center
03:23PM 39.4014 -121.3150 264° West 421 484 32,000  Level Oakland Center
03:24PM 39.3867 -121.4644 263° West 421 484 32,000  Level Oakland Center
03:25PM 39.3744 -121.6128 264° West 419 482 32,000  Level Oakland Center
03:26PM 39.3611 -121.7619 263° West 420 483 32,000  Level Oakland Center
03:27PM 39.3475 -121.9108 263° West 420 483 32,000  Level Oakland Center
03:28PM 39.3000 -122.0797 250° West 422 486 32,000 -360 Level Oakland Center
03:29PM 39.2394 -122.2042 238° Southwest 415 478 31,300 -1,260 Descending Oakland Center
03:30PM 39.1436 -122.2750 210° Southwest 405 466 29,500 -1,740 Descending Oakland Center
03:31PM 39.0411 -122.3325 204° Southwest 403 464 27,900 -1,260 Descending Oakland Center
03:32PM 38.9436 -122.3881 204° Southwest 389 448 27,000 -1,020 Descending Oakland Center
03:33PM 38.8475 -122.4425 204° Southwest 380 437 25,900 -1,440 Descending Oakland Center
03:34PM 38.7533 -122.4936 203° Southwest 373 429 24,100 -1,860 Descending Oakland Center
03:35PM 38.6592 -122.5469 204° Southwest 365 420 22,200 -2,040 Descending Oakland Center
03:36PM 38.5525 -122.6069 204° Southwest 354 407 20,000 -1,800 Descending Oakland Center
03:37PM 38.4664 -122.6539 203° Southwest 343 395 18,600 -1,560 Descending Oakland Center
03:39PM 38.3833 -122.7000 204° Southwest 331 381 16,900 -1,620 Descending Oakland Center
03:40PM 38.3033 -122.7447 204° Southwest 321 369 15,300 -1,620 Descending Oakland Center
03:41PM 38.2236 -122.7878 203° Southwest 314 361 13,600 -1,680 Descending Oakland Center
03:42PM 38.1469 -122.8314 204° Southwest 308 354 11,900 -1,320 Descending Oakland Center
03:43PM 38.0564 -122.7903 160° South 307 353 11,000 -480 Descending Oakland Center
03:44PM 37.9803 -122.7181 143° Southeast 326 375 11,000  Level Oakland Center
03:45PM 37.8953 -122.6381 143° Southeast 385 443 11,000  Level Oakland Center
03:46PM 37.8153 -122.5606 143° Southeast 381 438 11,000  Level Oakland Center
03:47PM 37.7422 -122.4906 143° Southeast 281 323 11,000  Level Oakland Center
03:48PM 37.6872 -122.4392 144° Southeast 255 293 11,000  Level Oakland Center
03:49PM 37.6314 -122.3861 143° Southeast 251 289 11,000 -360 Level Oakland Center
03:50PM 37.5742 -122.3419 149° Southeast 245 282 10,300 -900 Descending Oakland Center
03:51PM 37.5125 -122.3064 155° Southeast 244 281 9,200 -1,500 Descending Oakland Center
03:52PM 37.4558 -122.2622 148° Southeast 245 282 7,300 -1,620 Descending Oakland Center
03:53PM 37.4358 -122.1828 108° East 243 280 5,900 -1,260 Descending Oakland Center
03:54PM 37.4961 -122.1700 10° North 204 235 4,800 -1,140 Descending Oakland Center
03:55PM 37.5372 -122.2003 330° Northwest 176 203 3,600 -1,200 Descending Oakland Center
03:56PM 37.5628 -122.2433 307° West 164 189 2,400 -1,020 Descending Oakland Center
03:57PM 37.5811 -122.2856 299° West 149 171 1,600 -840 Descending Oakland Center
03:58PM 37.5956 -122.3228 296° West 133 153 700 -660 Descending Oakland Center
03:59PM 37.6139 -122.3647 299° West 127 146 300 -420 Descending Oakland Center